Terminal Aerodrome Forecast
Issued by NWS

Home | Current Version | Previous Version | Text Only | Print | Product List | Glossary On
Versions: 1 2 3 4 5 6 7 8 9 10 11 12 13 14 15 16 17 18 19 20 21
000
FTUS44 KTSA 020500
TAFBVO
TAF
KBVO 020537Z 0206/0306 03003KT P6SM BKN250
      TEMPO 0208/0212 4SM BR
     FM021400 05006KT P6SM SCT020 BKN250
     FM021800 14007KT P6SM OVC015
     FM030000 16006KT P6SM OVC012=

USA.gov is the U.S. government's official web portal to all federal, state and local government web resources and services.